Time;durP1;ratioP1;P1;durP2;ratioP2;P2;SDS_P1;SDS_P2;PMS_P1;PMS_P2;Temp;Humidity;BMP_temperature;BMP_pressure;BME280_temperature;BME280_humidity;BME280_pressure;Samples;Min_cycle;Max_cycle;Signal;HPM_P1;HPM_P2
2021/01/03 00:01:02;;;;;;;;;;;;;;;;;;5031117;28;7338;-49
2021/01/03 00:03:27;;;;;;;;;;;;;;;;;;5051704;28;9067;-52
2021/01/03 00:05:52;;;;;;;;;;;;;;;;;;5047949;28;13257;-52
2021/01/03 00:08:18;;;;;;;;;;;;;;;;;;5049281;28;9291;-52
2021/01/03 00:10:43;;;;;;;;;;;;;;;;;;5052199;28;12170;-50
2021/01/03 00:13:08;;;;;;;;;;;;;;;;;;5049730;28;16664;-49
2021/01/03 00:15:34;;;;;;;;;;;;;;;;;;5051712;28;7012;-52
2021/01/03 00:17:59;;;;;;;;;;;;;;;;;;5047714;28;11229;-50
2021/01/03 00:20:26;;;;;;;;;;;;;;;;;;5047834;28;12346;-50
2021/01/03 00:22:51;;;;;;;;;;;;;;;;;;5046232;28;13948;-50
2021/01/03 00:25:17;;;;;;;;;;;;;;;;;;5048953;28;6805;-52
2021/01/03 00:27:42;;;;;;;;;;;;;;;;;;5051521;28;4137;-51
2021/01/03 00:30:10;;;;;;;;;;;;;;;;;;5049463;28;13479;-50
2021/01/03 00:32:35;;;;;;;;;;;;;;;;;;5048997;28;8769;-54
2021/01/03 00:35:00;;;;;;;;;;;;;;;;;;5048854;28;13139;-50
2021/01/03 00:37:26;;;;;;;;;;;;;;;;;;5048901;28;12902;-50
2021/01/03 00:39:51;;;;;;;;;;;;;;;;;;5058331;28;4399;-49
2021/01/03 00:42:17;;;;;;;;;;;;;;;;;;5050071;28;8110;-50
2021/01/03 00:44:42;;;;;;;;;;;;;;;;;;5064800;28;10616;-53
2021/01/03 00:47:08;;;;;;;;;;;;;;;;;;5060699;28;11828;-54
2021/01/03 00:49:33;;;;;;;;;;;;;;;;;;5061143;28;8991;-50
2021/01/03 00:51:58;;;;;;;;;;;;;;;;;;5059706;28;14469;-53
2021/01/03 00:54:24;;;;;;;;;;;;;;;;;;5073117;28;7080;-50
2021/01/03 00:56:49;;;;;;;;;;;;;;;;;;5070724;28;15800;-51
2021/01/03 00:59:14;;;;;;;;;;;;;;;;;;5067105;28;10885;-50
2021/01/03 01:01:40;;;;;;;;;;;;;;;;;;5065243;28;9777;-52
2021/01/03 01:04:05;;;;;;;;;;;;;;;;;;5069985;28;9540;-51
2021/01/03 01:06:30;;;;;;;;;;;;;;;;;;5075027;28;9775;-50
2021/01/03 01:08:55;;;;;;;;;;;;;;;;;;5071891;28;13726;-51
2021/01/03 01:11:22;;;;;;;;;;;;;;;;;;5066373;28;16933;-52
2021/01/03 01:13:47;;;;;;;;;;;;;;;;;;5072947;28;13915;-50
2021/01/03 01:16:13;;;;;;;;;;;;;;;;;;5057783;28;9300;-52
2021/01/03 01:18:38;;;;;;;;;;;;;;;;;;5064642;28;4212;-51
2021/01/03 01:21:03;;;;;;;;;;;;;;;;;;5065099;28;7627;-50
2021/01/03 01:23:28;;;;;;;;;;;;;;;;;;5062407;28;9613;-54
2021/01/03 01:25:54;;;;;;;;;;;;;;;;;;5072327;28;14673;-50
2021/01/03 01:28:19;;;;;;;;;;;;;;;;;;5054972;28;13270;-50
2021/01/03 01:30:44;;;;;;;;;;;;;;;;;;5070105;28;4240;-53
2021/01/03 01:33:10;;;;;;;;;;;;;;;;;;5068004;28;14091;-51
2021/01/03 01:35:35;;;;;;;;;;;;;;;;;;5067056;28;6866;-53
2021/01/03 01:38:01;;;;;;;;;;;;;;;;;;5066541;28;10776;-53
2021/01/03 01:40:31;;;;;;;;;;;;;;;;;;5068321;28;13505;-51
2021/01/03 01:42:56;;;;;;;;;;;;;;;;;;5067861;28;3896;-50
2021/01/03 01:45:24;;;;;;;;;;;;;;;;;;5049660;28;7398;-49
2021/01/03 01:47:51;;;;;;;;;;;;;;;;;;5068108;28;8246;-51
2021/01/03 01:50:19;;;;;;;;;;;;;;;;;;5066397;28;13091;-52
2021/01/03 01:52:47;;;;;;;;;;;;;;;;;;5067457;28;8095;-48
2021/01/03 01:55:19;;;;;;;;;;;;;;;;;;5068338;28;14611;-51
2021/01/03 01:58:07;;;;;;;;;;;;;;;;;;5067494;28;3908;-52
2021/01/03 02:00:35;;;;;;;;;;;;;;;;;;5064237;28;8789;-55
2021/01/03 02:03:12;;;;;;;;;;;;;;;;;;5066186;28;14533;-52
2021/01/03 02:05:48;;;;;;;;;;;;;;;;;;5065398;28;14137;-49
2021/01/03 02:08:16;;;;;;;;;;;;;;;;;;5064536;28;11222;-51
2021/01/03 02:10:44;;;;;;;;;;;;;;;;;;5060000;28;14277;-52
2021/01/03 02:13:15;;;;;;;;;;;;;;;;;;5067431;28;7792;-51
2021/01/03 02:15:41;;;;;;;;;;;;;;;;;;5069997;28;4114;-52
2021/01/03 02:18:08;;;;;;;;;;;;;;;;;;5065988;28;9396;-53
2021/01/03 02:20:37;;;;;;;;;;;;;;;;;;5066684;28;16737;-49
2021/01/03 02:23:07;;;;;;;;;;;;;;;;;;5065979;28;9482;-52
2021/01/03 02:25:32;;;;;;;;;;;;;;;;;;5058357;28;9026;-50
2021/01/03 02:28:09;;;;;;;;;;;;;;;;;;5068617;28;8867;-50
2021/01/03 02:30:35;;;;;;;;;;;;;;;;;;5057322;28;7034;-52
2021/01/03 02:33:10;;;;;;;;;;;;;;;;;;5063950;28;16420;-53
2021/01/03 02:35:36;;;;;;;;;;;;;;;;;;5059822;28;14362;-54
2021/01/03 02:38:04;;;;;;;;;;;;;;;;;;5057126;28;4665;-52
2021/01/03 02:40:29;;;;;;;;;;;;;;;;;;5065774;28;10429;-51
2021/01/03 02:42:54;;;;;;;;;;;;;;;;;;5062037;28;4301;-53
2021/01/03 02:45:19;;;;;;;;;;;;;;;;;;5066124;28;17439;-52
2021/01/03 02:47:46;;;;;;;;;;;;;;;;;;5060860;28;14750;-51
2021/01/03 02:50:13;;;;;;;;;;;;;;;;;;5062347;28;7449;-51
2021/01/03 02:52:39;;;;;;;;;;;;;;;;;;5064333;28;14781;-54
2021/01/03 02:55:05;;;;;;;;;;;;;;;;;;5063199;28;13593;-53
2021/01/03 02:57:30;;;;;;;;;;;;;;;;;;5067358;28;7830;-54
2021/01/03 02:59:56;;;;;;;;;;;;;;;;;;5060252;28;15481;-51
2021/01/03 03:02:21;;;;;;;;;;;;;;;;;;5063036;28;14195;-51
2021/01/03 03:04:47;;;;;;;;;;;;;;;;;;5061495;28;15145;-49
2021/01/03 03:07:12;;;;;;;;;;;;;;;;;;5067571;28;9381;-50
2021/01/03 03:09:37;;;;;;;;;;;;;;;;;;5065766;28;9300;-53
2021/01/03 03:12:03;;;;;;;;;;;;;;;;;;5059357;28;14727;-53
2021/01/03 03:14:28;;;;;;;;;;;;;;;;;;5065671;28;14231;-53
2021/01/03 03:16:57;;;;;;;;;;;;;;;;;;5064394;28;14497;-53
2021/01/03 03:19:23;;;;;;;;;;;;;;;;;;5054550;28;16275;-50
2021/01/03 03:21:49;;;;;;;;;;;;;;;;;;5066509;28;4268;-53
2021/01/03 03:24:14;;;;;;;;;;;;;;;;;;5066378;28;11703;-51
2021/01/03 03:26:40;;;;;;;;;;;;;;;;;;5066468;28;8876;-52
2021/01/03 03:29:05;;;;;;;;;;;;;;;;;;5058814;28;11219;-52
2021/01/03 03:31:30;;;;;;;;;;;;;;;;;;5057213;28;6767;-54
2021/01/03 03:33:55;;;;;;;;;;;;;;;;;;5068771;28;4201;-50
2021/01/03 03:36:21;;;;;;;;;;;;;;;;;;5065156;28;12443;-53
2021/01/03 03:38:46;;;;;;;;;;;;;;;;;;5066320;28;9287;-53
2021/01/03 03:41:21;;;;;;;;;;;;;;;;;;5066832;28;12821;-50
2021/01/03 03:43:47;;;;;;;;;;;;;;;;;;5067054;28;12441;-53
2021/01/03 03:46:12;;;;;;;;;;;;;;;;;;5067924;28;12972;-51
2021/01/03 03:48:38;;;;;;;;;;;;;;;;;;5056491;28;7142;-50
2021/01/03 03:51:03;;;;;;;;;;;;;;;;;;5063506;28;13949;-53
2021/01/03 03:53:28;;;;;;;;;;;;;;;;;;5065126;28;13986;-51
2021/01/03 03:55:53;;;;;;;;;;;;;;;;;;5057139;28;13423;-52
2021/01/03 03:58:19;;;;;;;;;;;;;;;;;;5068475;28;9994;-50
2021/01/03 04:00:45;;;;;;;;;;;;;;;;;;5063441;28;4116;-52
2021/01/03 04:03:10;;;;;;;;;;;;;;;;;;5041166;28;9250;-49
2021/01/03 04:05:35;;;;;;;;;;;;;;;;;;5062497;28;15113;-53
2021/01/03 04:08:00;;;;;;;;;;;;;;;;;;5060904;28;15308;-52
2021/01/03 04:10:26;;;;;;;;;;;;;;;;;;5065127;28;13226;-50
2021/01/03 04:12:51;;;;;;;;;;;;;;;;;;5072106;28;4150;-52
2021/01/03 04:15:17;;;;;;;;;;;;;;;;;;5066831;28;12542;-48
2021/01/03 04:17:44;;;;;;;;;;;;;;;;;;5068803;28;16341;-52
2021/01/03 04:20:14;;;;;;;;;;;;;;;;;;5062415;28;13556;-52
2021/01/03 04:22:39;;;;;;;;;;;;;;;;;;5062627;28;12970;-54
2021/01/03 04:25:05;;;;;;;;;;;;;;;;;;5068896;28;13736;-50
2021/01/03 04:27:30;;;;;;;;;;;;;;;;;;5070770;28;8411;-53
2021/01/03 04:29:55;;;;;;;;;;;;;;;;;;5062279;28;13944;-51
2021/01/03 04:32:21;;;;;;;;;;;;;;;;;;5063011;28;13192;-51
2021/01/03 04:34:46;;;;;;;;;;;;;;;;;;5055330;28;13280;-52
2021/01/03 04:37:16;;;;;;;;;;;;;;;;;;5068223;28;15324;-50
2021/01/03 04:39:41;;;;;;;;;;;;;;;;;;5061982;28;4118;-48
2021/01/03 04:42:13;;;;;;;;;;;;;;;;;;5064385;28;9082;-52
2021/01/03 04:44:43;;;;;;;;;;;;;;;;;;5064139;28;13255;-53
2021/01/03 04:47:27;;;;;;;;;;;;;;;;;;5068346;28;9452;-52
2021/01/03 04:50:17;;;;;;;;;;;;;;;;;;5066474;28;14500;-53
2021/01/03 04:53:00;;;;;;;;;;;;;;;;;;5068639;28;13078;-50
2021/01/03 04:55:27;;;;;;;;;;;;;;;;;;5068881;28;7356;-51
2021/01/03 04:58:07;;;;;;;;;;;;;;;;;;5070372;28;4186;-50
2021/01/03 05:00:35;;;;;;;;;;;;;;;;;;5068876;28;9494;-50
2021/01/03 05:03:24;;;;;;;;;;;;;;;;;;5068730;28;11566;-52
2021/01/03 05:05:50;;;;;;;;;;;;;;;;;;5063736;28;15614;-51
2021/01/03 05:08:16;;;;;;;;;;;;;;;;;;5068002;28;9081;-54
2021/01/03 05:10:41;;;;;;;;;;;;;;;;;;5067818;28;10543;-52
2021/01/03 05:13:28;;;;;;;;;;;;;;;;;;5069439;28;10071;-52
2021/01/03 05:15:53;;;;;;;;;;;;;;;;;;5070342;28;4987;-49
2021/01/03 05:18:18;;;;;;;;;;;;;;;;;;5068026;28;16405;-55
2021/01/03 05:20:52;;;;;;;;;;;;;;;;;;5066851;28;9349;-51
2021/01/03 05:23:19;;;;;;;;;;;;;;;;;;5067853;28;15265;-51
2021/01/03 05:25:45;;;;;;;;;;;;;;;;;;5069234;28;14802;-54
2021/01/03 05:28:13;;;;;;;;;;;;;;;;;;5068652;28;8850;-52
2021/01/03 05:30:39;;;;;;;;;;;;;;;;;;5069075;28;7065;-49
2021/01/03 05:33:06;;;;;;;;;;;;;;;;;;5067901;28;9452;-51
2021/01/03 05:35:34;;;;;;;;;;;;;;;;;;5068275;28;9784;-51
2021/01/03 05:38:00;;;;;;;;;;;;;;;;;;5068026;28;8935;-50
2021/01/03 05:40:30;;;;;;;;;;;;;;;;;;5067086;28;14435;-51
2021/01/03 05:43:09;;;;;;;;;;;;;;;;;;5070285;28;4196;-50
2021/01/03 05:45:38;;;;;;;;;;;;;;;;;;5068510;28;7039;-52
2021/01/03 05:48:04;;;;;;;;;;;;;;;;;;5065979;28;14600;-53
2021/01/03 05:50:34;;;;;;;;;;;;;;;;;;5067336;28;9260;-50
2021/01/03 05:52:59;;;;;;;;;;;;;;;;;;5062638;28;14711;-52
2021/01/03 05:55:26;;;;;;;;;;;;;;;;;;5066780;28;13941;-50
2021/01/03 05:58:10;;;;;;;;;;;;;;;;;;5069479;28;4146;-52
2021/01/03 06:00:35;;;;;;;;;;;;;;;;;;5063455;28;9635;-51
2021/01/03 06:03:15;;;;;;;;;;;;;;;;;;5061468;28;14733;-50
2021/01/03 06:05:45;;;;;;;;;;;;;;;;;;5064855;28;9476;-51
2021/01/03 06:08:22;;;;;;;;;;;;;;;;;;5069205;28;7635;-50
2021/01/03 06:10:51;;;;;;;;;;;;;;;;;;5059174;28;8989;-53
2021/01/03 06:13:17;;;;;;;;;;;;;;;;;;5060749;28;9576;-49
2021/01/03 06:15:44;;;;;;;;;;;;;;;;;;5068344;28;4175;-52
2021/01/03 06:18:28;;;;;;;;;;;;;;;;;;5065693;28;9995;-50
2021/01/03 06:20:53;;;;;;;;;;;;;;;;;;5062832;28;13206;-53
2021/01/03 06:23:35;;;;;;;;;;;;;;;;;;5061832;28;14779;-50
2021/01/03 06:26:03;;;;;;;;;;;;;;;;;;5067115;28;16193;-53
2021/01/03 06:28:40;;;;;;;;;;;;;;;;;;5066977;28;11069;-52
2021/01/03 06:31:27;;;;;;;;;;;;;;;;;;5067778;28;6855;-49
2021/01/03 06:34:00;;;;;;;;;;;;;;;;;;5069251;28;4162;-53
2021/01/03 06:36:41;;;;;;;;;;;;;;;;;;5066883;28;13916;-51
2021/01/03 06:39:10;;;;;;;;;;;;;;;;;;5064812;28;12398;-51
2021/01/03 06:41:35;;;;;;;;;;;;;;;;;;5067300;28;8379;-52
2021/01/03 06:44:19;;;;;;;;;;;;;;;;;;5066517;28;13665;-50
2021/01/03 06:47:03;;;;;;;;;;;;;;;;;;5062829;28;12107;-51
2021/01/03 06:49:28;;;;;;;;;;;;;;;;;;5063153;28;9365;-54
2021/01/03 06:52:12;;;;;;;;;;;;;;;;;;5064736;28;4361;-53
2021/01/03 06:54:46;;;;;;;;;;;;;;;;;;5066606;28;6910;-50
2021/01/03 06:57:18;;;;;;;;;;;;;;;;;;5064529;28;15019;-49
2021/01/03 06:59:59;;;;;;;;;;;;;;;;;;5067897;28;9308;-53
2021/01/03 07:02:25;;;;;;;;;;;;;;;;;;5067765;28;6816;-50
2021/01/03 07:04:50;;;;;;;;;;;;;;;;;;5066553;28;15213;-54
2021/01/03 07:07:24;;;;;;;;;;;;;;;;;;5065648;28;13995;-50
2021/01/03 07:09:55;;;;;;;;;;;;;;;;;;5072261;28;4097;-51
2021/01/03 07:12:31;;;;;;;;;;;;;;;;;;5066348;28;14224;-51
2021/01/03 07:14:57;;;;;;;;;;;;;;;;;;5062248;28;15926;-54
2021/01/03 07:17:45;;;;;;;;;;;;;;;;;;5066657;28;15539;-50
2021/01/03 07:20:11;;;;;;;;;;;;;;;;;;5056313;28;13949;-54
2021/01/03 07:22:55;;;;;;;;;;;;;;;;;;5066676;28;13362;-51
2021/01/03 07:25:27;;;;;;;;;;;;;;;;;;5071973;28;7558;-52
2021/01/03 07:28:15;;;;;;;;;;;;;;;;;;5067575;28;4200;-49
2021/01/03 07:31:01;;;;;;;;;;;;;;;;;;5062223;28;6968;-52
2021/01/03 07:33:44;;;;;;;;;;;;;;;;;;5064810;28;11897;-50
2021/01/03 07:36:42;;;;;;;;;;;;;;;;;;5070127;28;13917;-52
2021/01/03 07:39:12;;;;;;;;;;;;;;;;;;5007653;28;15674;-54
2021/01/03 07:41:37;;;;;;;;;;;;;;;;;;5004115;28;14760;-49
2021/01/03 07:44:06;;;;;;;;;;;;;;;;;;5007112;28;12888;-49
2021/01/03 07:46:49;;;;;;;;;;;;;;;;;;5002924;28;9698;-52
2021/01/03 07:49:31;;;;;;;;;;;;;;;;;;5000920;28;15721;-51
2021/01/03 07:51:57;;;;;;;;;;;;;;;;;;5004221;28;4235;-51
2021/01/03 07:54:23;;;;;;;;;;;;;;;;;;5004215;28;9198;-52
2021/01/03 07:56:48;;;;;;;;;;;;;;;;;;5002818;28;7574;-51
2021/01/03 07:59:14;;;;;;;;;;;;;;;;;;5007145;28;7577;-52
2021/01/03 08:01:43;;;;;;;;;;;;;;;;;;5007360;28;15190;-50
2021/01/03 08:04:11;;;;;;;;;;;;;;;;;;5011859;28;8804;-52
2021/01/03 08:06:40;;;;;;;;;;;;;;;;;;5013125;28;7830;-50
2021/01/03 08:09:05;;;;;;;;;;;;;;;;;;5007319;28;12365;-50
2021/01/03 08:11:38;;;;;;;;;;;;;;;;;;5014962;28;8113;-52
2021/01/03 08:14:25;;;;;;;;;;;;;;;;;;5021793;28;10470;-50
2021/01/03 08:16:50;;;;;;;;;;;;;;;;;;5064551;28;12373;-52
2021/01/03 08:19:21;;;;;;;;;;;;;;;;;;5057541;28;9643;-53
2021/01/03 08:21:52;;;;;;;;;;;;;;;;;;5068168;28;4162;-52
2021/01/03 08:24:18;;;;;;;;;;;;;;;;;;5069145;28;16098;-52
2021/01/03 08:26:43;;;;;;;;;;;;;;;;;;5069832;28;8157;-52
2021/01/03 08:29:15;;;;;;;;;;;;;;;;;;5066626;28;10554;-51
2021/01/03 08:31:44;;;;;;;;;;;;;;;;;;5065257;28;16011;-52
2021/01/03 08:34:14;;;;;;;;;;;;;;;;;;5065028;28;17842;-52
2021/01/03 08:36:40;;;;;;;;;;;;;;;;;;5069696;28;8349;-51
2021/01/03 08:39:10;;;;;;;;;;;;;;;;;;5067336;28;15767;-50
2021/01/03 08:41:56;;;;;;;;;;;;;;;;;;5069336;28;10303;-53
2021/01/03 08:44:22;;;;;;;;;;;;;;;;;;5058297;28;13771;-51
2021/01/03 08:46:49;;;;;;;;;;;;;;;;;;5069217;28;8817;-51
2021/01/03 08:49:14;;;;;;;;;;;;;;;;;;5077612;28;14156;-53
2021/01/03 08:51:40;;;;;;;;;;;;;;;;;;5069361;28;6944;-50
2021/01/03 08:54:09;;;;;;;;;;;;;;;;;;5068451;28;9486;-51
2021/01/03 08:56:35;;;;;;;;;;;;;;;;;;5069915;28;9647;-55
2021/01/03 08:59:00;;;;;;;;;;;;;;;;;;5069596;28;11827;-51
2021/01/03 09:01:28;;;;;;;;;;;;;;;;;;5069080;28;9438;-54
2021/01/03 09:03:56;;;;;;;;;;;;;;;;;;5072495;28;1162;-51
2021/01/03 09:06:22;;;;;;;;;;;;;;;;;;5069501;28;12165;-50
2021/01/03 09:08:47;;;;;;;;;;;;;;;;;;5070688;28;13735;-50
2021/01/03 09:11:13;;;;;;;;;;;;;;;;;;5068440;28;13269;-50
2021/01/03 09:13:49;;;;;;;;;;;;;;;;;;5064207;28;7837;-50
2021/01/03 09:16:32;;;;;;;;;;;;;;;;;;5069046;28;12021;-49
2021/01/03 09:19:02;;;;;;;;;;;;;;;;;;5069310;28;4227;-54
2021/01/03 09:21:28;;;;;;;;;;;;;;;;;;5064061;28;11607;-54
2021/01/03 09:23:58;;;;;;;;;;;;;;;;;;5068418;28;7989;-52
2021/01/03 09:26:30;;;;;;;;;;;;;;;;;;5069609;28;14461;-52
2021/01/03 09:29:04;;;;;;;;;;;;;;;;;;5064781;28;11459;-49
2021/01/03 09:31:30;;;;;;;;;;;;;;;;;;5068260;28;14500;-50
2021/01/03 09:34:08;;;;;;;;;;;;;;;;;;5070474;28;4665;-49
2021/01/03 09:36:55;;;;;;;;;;;;;;;;;;5069017;28;7332;-51
2021/01/03 09:39:20;;;;;;;;;;;;;;;;;;5068090;28;9350;-52
2021/01/03 09:41:57;;;;;;;;;;;;;;;;;;5069482;28;15854;-52
2021/01/03 09:44:41;;;;;;;;;;;;;;;;;;5068159;28;10984;-52
2021/01/03 09:47:09;;;;;;;;;;;;;;;;;;5058247;28;7936;-51
2021/01/03 09:49:37;;;;;;;;;;;;;;;;;;5053117;28;12486;-53
2021/01/03 09:52:02;;;;;;;;;;;;;;;;;;5069489;28;4186;-50
2021/01/03 09:54:34;;;;;;;;;;;;;;;;;;5065123;28;7723;-50
2021/01/03 09:56:59;;;;;;;;;;;;;;;;;;5061554;28;14461;-51
2021/01/03 09:59:25;;;;;;;;;;;;;;;;;;5068395;28;17226;-53
2021/01/03 10:01:50;;;;;;;;;;;;;;;;;;5064515;28;15079;-52
2021/01/03 10:04:16;;;;;;;;;;;;;;;;;;5068820;28;9714;-51
2021/01/03 10:06:42;;;;;;;;;;;;;;;;;;5068617;28;6971;-52
2021/01/03 10:09:23;;;;;;;;;;;;;;;;;;5066459;28;10405;-50
2021/01/03 10:11:48;;;;;;;;;;;;;;;;;;5070039;28;6761;-50
2021/01/03 10:14:26;;;;;;;;;;;;;;;;;;5061799;28;9401;-50
2021/01/03 10:16:51;;;;;;;;;;;;;;;;;;5065565;28;9440;-53
2021/01/03 10:19:18;;;;;;;;;;;;;;;;;;5073218;28;13460;-49
2021/01/03 10:21:43;;;;;;;;;;;;;;;;;;5068969;28;7034;-53
2021/01/03 10:24:13;;;;;;;;;;;;;;;;;;5064100;28;11504;-50
2021/01/03 10:26:39;;;;;;;;;;;;;;;;;;5059805;28;15529;-52
2021/01/03 10:29:05;;;;;;;;;;;;;;;;;;5066746;28;13886;-52
2021/01/03 10:31:38;;;;;;;;;;;;;;;;;;5065516;28;15937;-51
2021/01/03 10:34:04;;;;;;;;;;;;;;;;;;5067668;28;4224;-48
2021/01/03 10:36:29;;;;;;;;;;;;;;;;;;5067166;28;7332;-52
2021/01/03 10:38:54;;;;;;;;;;;;;;;;;;5066852;28;14434;-51
2021/01/03 10:41:19;;;;;;;;;;;;;;;;;;5066870;28;13845;-51
2021/01/03 10:43:45;;;;;;;;;;;;;;;;;;5059870;28;12692;-53
2021/01/03 10:46:11;;;;;;;;;;;;;;;;;;5068152;28;9944;-51
2021/01/03 10:48:36;;;;;;;;;;;;;;;;;;5066074;28;7751;-49
2021/01/03 10:51:02;;;;;;;;;;;;;;;;;;5066499;28;9739;-52
2021/01/03 10:53:27;;;;;;;;;;;;;;;;;;5066957;28;10415;-51
2021/01/03 10:55:52;;;;;;;;;;;;;;;;;;5066824;28;15269;-50
2021/01/03 10:58:18;;;;;;;;;;;;;;;;;;5066870;28;14255;-53
2021/01/03 11:00:43;;;;;;;;;;;;;;;;;;5061365;28;6968;-52
2021/01/03 11:03:08;;;;;;;;;;;;;;;;;;5060175;28;15762;-50
2021/01/03 11:05:33;;;;;;;;;;;;;;;;;;5065260;28;9982;-51
2021/01/03 11:07:59;;;;;;;;;;;;;;;;;;5065559;28;16280;-50
2021/01/03 11:10:25;;;;;;;;;;;;;;;;;;5066490;28;14482;-51
2021/01/03 11:12:50;;;;;;;;;;;;;;;;;;5067401;28;4090;-52
2021/01/03 11:15:15;;;;;;;;;;;;;;;;;;5060786;28;13589;-52
2021/01/03 11:17:41;;;;;;;;;;;;;;;;;;5062620;28;14754;-53
2021/01/03 11:20:06;;;;;;;;;;;;;;;;;;5065899;28;14529;-51
2021/01/03 11:22:31;;;;;;;;;;;;;;;;;;5066873;28;13407;-53
2021/01/03 11:24:57;;;;;;;;;;;;;;;;;;5068525;28;4280;-52
2021/01/03 11:27:22;;;;;;;;;;;;;;;;;;5061180;28;15536;-52
2021/01/03 11:29:49;;;;;;;;;;;;;;;;;;5060114;28;14099;-53
2021/01/03 11:32:16;;;;;;;;;;;;;;;;;;5063178;28;10668;-50
2021/01/03 11:34:42;;;;;;;;;;;;;;;;;;5062058;28;9027;-50
2021/01/03 11:37:13;;;;;;;;;;;;;;;;;;5068168;28;5194;-50
2021/01/03 11:39:38;;;;;;;;;;;;;;;;;;5067992;28;8482;-51
2021/01/03 11:42:12;;;;;;;;;;;;;;;;;;5068416;28;9417;-54
2021/01/03 11:44:39;;;;;;;;;;;;;;;;;;5066463;28;13227;-52
2021/01/03 11:47:05;;;;;;;;;;;;;;;;;;5066604;28;9445;-50
2021/01/03 11:49:32;;;;;;;;;;;;;;;;;;5063831;28;16169;-49
2021/01/03 11:51:58;;;;;;;;;;;;;;;;;;5064920;28;4162;-52
2021/01/03 11:54:24;;;;;;;;;;;;;;;;;;5065559;28;15045;-48
2021/01/03 11:56:52;;;;;;;;;;;;;;;;;;5062766;28;6808;-52
2021/01/03 11:59:17;;;;;;;;;;;;;;;;;;5059611;28;16002;-53
2021/01/03 12:01:43;;;;;;;;;;;;;;;;;;5048020;28;11374;-52
2021/01/03 12:04:08;;;;;;;;;;;;;;;;;;5049469;28;15391;-49
2021/01/03 12:06:33;;;;;;;;;;;;;;;;;;5066368;28;6926;-52
2021/01/03 12:08:58;;;;;;;;;;;;;;;;;;5066036;28;10512;-49
2021/01/03 12:11:25;;;;;;;;;;;;;;;;;;5066098;28;9529;-51
2021/01/03 12:13:51;;;;;;;;;;;;;;;;;;5061490;28;14575;-49
2021/01/03 12:16:20;;;;;;;;;;;;;;;;;;5066667;28;14376;-49
2021/01/03 12:18:45;;;;;;;;;;;;;;;;;;5068402;28;8056;-52
2021/01/03 12:21:11;;;;;;;;;;;;;;;;;;5066046;28;13881;-53
2021/01/03 12:23:36;;;;;;;;;;;;;;;;;;5068704;28;12298;-51
2021/01/03 12:26:01;;;;;;;;;;;;;;;;;;5060043;28;15467;-50
2021/01/03 12:28:26;;;;;;;;;;;;;;;;;;5069200;28;17304;-51
2021/01/03 12:30:52;;;;;;;;;;;;;;;;;;5069624;28;4150;-50
2021/01/03 12:33:17;;;;;;;;;;;;;;;;;;5068825;28;12958;-51
2021/01/03 12:35:42;;;;;;;;;;;;;;;;;;5070279;28;15013;-48
2021/01/03 12:38:07;;;;;;;;;;;;;;;;;;5067956;28;13448;-53
2021/01/03 12:40:33;;;;;;;;;;;;;;;;;;5068818;28;10636;-50
2021/01/03 12:42:58;;;;;;;;;;;;;;;;;;5073801;28;4122;-51
2021/01/03 12:45:23;;;;;;;;;;;;;;;;;;5064564;28;11364;-54
2021/01/03 12:47:49;;;;;;;;;;;;;;;;;;5068710;28;15176;-52
2021/01/03 12:50:14;;;;;;;;;;;;;;;;;;5066325;28;13612;-50
2021/01/03 12:52:39;;;;;;;;;;;;;;;;;;5066183;28;8119;-50
2021/01/03 12:55:05;;;;;;;;;;;;;;;;;;5071193;28;4209;-50
2021/01/03 12:57:30;;;;;;;;;;;;;;;;;;5068563;28;13512;-52
2021/01/03 12:59:55;;;;;;;;;;;;;;;;;;5068387;28;14021;-50
2021/01/03 13:02:21;;;;;;;;;;;;;;;;;;5040868;28;13256;-53
2021/01/03 13:04:46;;;;;;;;;;;;;;;;;;5065934;28;12596;-51
2021/01/03 13:07:11;;;;;;;;;;;;;;;;;;5069928;28;9946;-51
2021/01/03 13:09:37;;;;;;;;;;;;;;;;;;5065609;28;7352;-49
2021/01/03 13:12:02;;;;;;;;;;;;;;;;;;5059041;28;9191;-51
2021/01/03 13:14:28;;;;;;;;;;;;;;;;;;5063247;28;14198;-54
2021/01/03 13:16:53;;;;;;;;;;;;;;;;;;5058930;28;14416;-53
2021/01/03 13:19:18;;;;;;;;;;;;;;;;;;5068038;28;12049;-49
2021/01/03 13:21:46;;;;;;;;;;;;;;;;;;5070137;28;9654;-53
2021/01/03 13:24:11;;;;;;;;;;;;;;;;;;5068689;28;10615;-52
2021/01/03 13:26:37;;;;;;;;;;;;;;;;;;5067801;28;13894;-52
2021/01/03 13:29:02;;;;;;;;;;;;;;;;;;5058881;28;14190;-49
2021/01/03 13:31:28;;;;;;;;;;;;;;;;;;5056403;28;9346;-50
2021/01/03 13:33:54;;;;;;;;;;;;;;;;;;5069219;28;4185;-49
2021/01/03 13:36:20;;;;;;;;;;;;;;;;;;5065591;28;9310;-51
2021/01/03 13:38:46;;;;;;;;;;;;;;;;;;5067933;28;15432;-49
2021/01/03 13:41:12;;;;;;;;;;;;;;;;;;5060189;28;13904;-49
2021/01/03 13:43:38;;;;;;;;;;;;;;;;;;5062710;28;9329;-50
2021/01/03 13:46:04;;;;;;;;;;;;;;;;;;5070108;28;4158;-54
2021/01/03 13:48:29;;;;;;;;;;;;;;;;;;5067583;28;16136;-51
2021/01/03 13:50:54;;;;;;;;;;;;;;;;;;5066657;28;14677;-52
2021/01/03 13:53:20;;;;;;;;;;;;;;;;;;5068798;28;7998;-50
2021/01/03 13:55:47;;;;;;;;;;;;;;;;;;5067814;28;9520;-49
2021/01/03 13:58:12;;;;;;;;;;;;;;;;;;5068078;28;11928;-53
2021/01/03 14:00:37;;;;;;;;;;;;;;;;;;5064149;28;9305;-52
2021/01/03 14:03:02;;;;;;;;;;;;;;;;;;5067968;28;11807;-52
2021/01/03 14:05:28;;;;;;;;;;;;;;;;;;5065940;28;15546;-49
2021/01/03 14:07:53;;;;;;;;;;;;;;;;;;5063842;28;14851;-53
2021/01/03 14:10:19;;;;;;;;;;;;;;;;;;5058635;28;10109;-51
2021/01/03 14:12:45;;;;;;;;;;;;;;;;;;5069500;28;6953;-48
2021/01/03 14:15:11;;;;;;;;;;;;;;;;;;5066667;28;9377;-51
2021/01/03 14:17:37;;;;;;;;;;;;;;;;;;5067610;28;9321;-52
2021/01/03 14:20:06;;;;;;;;;;;;;;;;;;5059612;28;12885;-49
2021/01/03 14:22:33;;;;;;;;;;;;;;;;;;5067710;28;15760;-54
2021/01/03 14:24:59;;;;;;;;;;;;;;;;;;5069887;28;4174;-52
2021/01/03 14:27:24;;;;;;;;;;;;;;;;;;5048886;28;15002;-51
2021/01/03 14:29:50;;;;;;;;;;;;;;;;;;5067455;28;12030;-51
2021/01/03 14:32:16;;;;;;;;;;;;;;;;;;5066906;28;16189;-54
2021/01/03 14:34:48;;;;;;;;;;;;;;;;;;5063130;28;14295;-50
2021/01/03 14:37:43;;;;;;;;;;;;;;;;;;5068818;28;8116;-49
2021/01/03 14:40:08;;;;;;;;;;;;;;;;;;5033605;28;4117;-51
2021/01/03 14:42:37;;;;;;;;;;;;;;;;;;5066349;28;8095;-52
2021/01/03 14:45:05;;;;;;;;;;;;;;;;;;5067026;28;13258;-51
2021/01/03 14:47:39;;;;;;;;;;;;;;;;;;5066348;28;12741;-51
2021/01/03 14:50:14;;;;;;;;;;;;;;;;;;5065305;28;12548;-51
2021/01/03 14:52:39;;;;;;;;;;;;;;;;;;5061252;28;14051;-52
2021/01/03 14:55:17;;;;;;;;;;;;;;;;;;5065031;28;4293;-50
2021/01/03 14:57:43;;;;;;;;;;;;;;;;;;5067960;28;9167;-50
2021/01/03 15:00:14;;;;;;;;;;;;;;;;;;5060829;28;10172;-49
2021/01/03 15:02:54;;;;;;;;;;;;;;;;;;5059044;28;14842;-53
2021/01/03 15:05:20;;;;;;;;;;;;;;;;;;5057068;28;14857;-50
2021/01/03 15:07:49;;;;;;;;;;;;;;;;;;5065023;28;8348;-51
2021/01/03 15:10:16;;;;;;;;;;;;;;;;;;5061100;28;15041;-51
2021/01/03 15:12:41;;;;;;;;;;;;;;;;;;5063451;28;6980;-50
2021/01/03 15:15:25;;;;;;;;;;;;;;;;;;5066364;28;9368;-53
2021/01/03 15:17:58;;;;;;;;;;;;;;;;;;5063942;28;6797;-50
2021/01/03 15:20:24;;;;;;;;;;;;;;;;;;5056271;28;13814;-49
2021/01/03 15:22:52;;;;;;;;;;;;;;;;;;5063883;28;9401;-51
2021/01/03 15:25:21;;;;;;;;;;;;;;;;;;5063680;28;15407;-51
2021/01/03 15:27:47;;;;;;;;;;;;;;;;;;5067148;28;3955;-49
2021/01/03 15:30:15;;;;;;;;;;;;;;;;;;5065965;28;10470;-50
2021/01/03 15:32:49;;;;;;;;;;;;;;;;;;5062844;28;13616;-50
2021/01/03 15:35:30;;;;;;;;;;;;;;;;;;5064966;28;15794;-49
2021/01/03 15:37:56;;;;;;;;;;;;;;;;;;5064764;28;9476;-54
2021/01/03 15:40:24;;;;;;;;;;;;;;;;;;5062750;28;15947;-52
2021/01/03 15:42:56;;;;;;;;;;;;;;;;;;5058053;28;11165;-54
2021/01/03 15:45:24;;;;;;;;;;;;;;;;;;5064341;28;9476;-51
2021/01/03 15:47:52;;;;;;;;;;;;;;;;;;5069837;28;10309;-49
2021/01/03 15:50:18;;;;;;;;;;;;;;;;;;5064484;28;12489;-50
2021/01/03 15:52:44;;;;;;;;;;;;;;;;;;5065044;28;15295;-51
2021/01/03 15:55:12;;;;;;;;;;;;;;;;;;5064873;28;3929;-53
2021/01/03 15:57:38;;;;;;;;;;;;;;;;;;5067909;28;6965;-50
2021/01/03 16:00:04;;;;;;;;;;;;;;;;;;5066986;28;11456;-52
2021/01/03 16:02:30;;;;;;;;;;;;;;;;;;5069009;28;15724;-51
2021/01/03 16:04:56;;;;;;;;;;;;;;;;;;5059003;28;9840;-53
2021/01/03 16:07:21;;;;;;;;;;;;;;;;;;5066655;28;16332;-50
2021/01/03 16:09:47;;;;;;;;;;;;;;;;;;5060334;28;9797;-52
2021/01/03 16:12:12;;;;;;;;;;;;;;;;;;5060942;28;13799;-48
2021/01/03 16:14:37;;;;;;;;;;;;;;;;;;5066551;28;10616;-48
2021/01/03 16:17:06;;;;;;;;;;;;;;;;;;5064097;28;13244;-51
2021/01/03 16:19:36;;;;;;;;;;;;;;;;;;5067623;28;9491;-50
2021/01/03 16:22:01;;;;;;;;;;;;;;;;;;5067920;28;4228;-54
2021/01/03 16:24:26;;;;;;;;;;;;;;;;;;5062872;28;9604;-52
2021/01/03 16:26:55;;;;;;;;;;;;;;;;;;5043780;28;12999;-53
2021/01/03 16:29:47;;;;;;;;;;;;;;;;;;5058089;28;7739;-49
2021/01/03 16:32:45;;;;;;;;;;;;;;;;;;5066546;28;8861;-51
2021/01/03 16:35:29;;;;;;;;;;;;;;;;;;5007786;28;8844;-54
2021/01/03 16:37:54;;;;;;;;;;;;;;;;;;5002733;28;16284;-50
2021/01/03 16:40:32;;;;;;;;;;;;;;;;;;5017829;28;8039;-50
2021/01/03 16:43:18;;;;;;;;;;;;;;;;;;5015748;28;4146;-50
2021/01/03 16:45:52;;;;;;;;;;;;;;;;;;4992779;28;8537;-50
2021/01/03 16:48:37;;;;;;;;;;;;;;;;;;4990168;28;10232;-50
2021/01/03 16:51:11;;;;;;;;;;;;;;;;;;4981515;28;11897;-51
2021/01/03 16:53:36;;;;;;;;;;;;;;;;;;4980964;28;14543;-54
2021/01/03 16:56:25;;;;;;;;;;;;;;;;;;4989829;28;14106;-50
2021/01/03 16:59:10;;;;;;;;;;;;;;;;;;4975087;28;7799;-53
2021/01/03 17:01:39;;;;;;;;;;;;;;;;;;4984337;28;14944;-53
2021/01/03 17:04:05;;;;;;;;;;;;;;;;;;4993498;28;4244;-53